createdAt,value
2019-05-01T00:00:59.941Z,7.69
2019-05-01T00:01:59.942Z,7.73
2019-05-01T00:02:59.925Z,7.63
2019-05-01T00:03:59.913Z,7.57
2019-05-01T00:04:59.894Z,7.60
2019-05-01T00:05:59.898Z,7.57
2019-05-01T00:06:59.919Z,7.63
2019-05-01T00:07:59.863Z,7.55
2019-05-01T00:08:59.850Z,7.63
2019-05-01T00:09:59.845Z,7.60
2019-05-01T00:10:59.830Z,7.62
2019-05-01T00:11:59.849Z,7.54
2019-05-01T00:12:59.970Z,7.54
2019-05-01T00:13:59.879Z,7.55
2019-05-01T00:14:59.786Z,7.55
2019-05-01T00:15:59.797Z,7.54
2019-05-01T00:16:59.800Z,7.57
2019-05-01T00:17:59.784Z,7.60
2019-05-01T00:18:59.788Z,7.62
2019-05-01T00:19:59.733Z,7.55
2019-05-01T00:20:59.723Z,7.47
2019-05-01T00:21:59.742Z,7.67
2019-05-01T00:22:59.701Z,7.54
2019-05-01T00:23:59.698Z,7.51
2019-05-01T00:24:59.725Z,7.58
2019-05-01T00:25:59.668Z,7.57
2019-05-01T00:26:59.686Z,7.60
2019-05-01T00:27:59.650Z,7.60
2019-05-01T00:28:59.674Z,7.62
2019-05-01T00:29:59.659Z,7.54
2019-05-01T00:30:59.700Z,7.44
2019-05-01T00:31:59.694Z,7.50
2019-05-01T00:32:59.613Z,7.62
2019-05-01T00:33:59.587Z,7.58
2019-05-01T00:34:59.599Z,7.58
2019-05-01T00:35:59.561Z,7.62
2019-05-01T00:36:59.551Z,7.58
2019-05-01T00:37:59.579Z,7.63
2019-05-01T00:38:59.546Z,7.60
2019-05-01T00:39:59.520Z,7.63
2019-05-01T00:40:59.510Z,7.44
2019-05-01T00:41:59.499Z,7.42
2019-05-01T00:42:59.506Z,7.45
2019-05-01T00:43:59.475Z,7.52
2019-05-01T00:44:59.483Z,7.54
2019-05-01T00:45:59.469Z,7.69
2019-05-01T00:46:59.450Z,7.69
2019-05-01T00:47:59.450Z,7.57
2019-05-01T00:48:59.425Z,7.60
2019-05-01T00:49:59.416Z,7.63
2019-05-01T00:50:59.462Z,7.70
2019-05-01T00:51:59.390Z,7.69
2019-05-01T00:52:59.396Z,7.66
2019-05-01T00:53:59.392Z,7.69
2019-05-01T00:54:59.375Z,7.55
2019-05-01T00:55:59.348Z,7.54
2019-05-01T00:56:59.336Z,7.50
2019-05-01T00:57:59.355Z,7.50
2019-05-01T00:58:59.332Z,7.47
2019-05-01T00:59:59.327Z,7.47
2019-05-01T01:00:59.293Z,7.39
2019-05-01T01:01:59.283Z,7.33
2019-05-01T01:02:59.314Z,7.37
2019-05-01T01:03:59.286Z,7.42
2019-05-01T01:04:59.253Z,7.41
2019-05-01T01:05:59.246Z,7.41
2019-05-01T01:06:59.250Z,7.42
2019-05-01T01:07:59.234Z,7.41
2019-05-01T01:08:59.249Z,7.45
2019-05-01T01:09:59.197Z,7.37
2019-05-01T01:10:59.187Z,7.41
2019-05-01T01:11:59.176Z,7.19
2019-05-01T01:12:59.179Z,7.42
2019-05-01T01:13:59.156Z,7.21
2019-05-01T01:14:59.168Z,7.27
2019-05-01T01:15:59.151Z,7.29
2019-05-01T01:16:59.141Z,7.30
2019-05-01T01:17:59.152Z,7.24
2019-05-01T01:18:59.103Z,7.21
2019-05-01T01:19:59.113Z,7.16
2019-05-01T01:20:59.080Z,7.30
2019-05-01T01:21:59.072Z,7.18
2019-05-01T01:22:59.064Z,7.14
2019-05-01T01:23:59.090Z,7.12
2019-05-01T01:24:59.047Z,7.05
2019-05-01T01:25:59.037Z,7.01
2019-05-01T01:26:59.016Z,6.99
2019-05-01T01:27:59.006Z,6.99
2019-05-01T01:28:59.005Z,7.00
2019-05-01T01:29:58.996Z,7.07
2019-05-01T01:30:59.005Z,7.09
2019-05-01T01:31:58.964Z,7.14
2019-05-01T01:32:58.959Z,7.09
2019-05-01T01:33:58.952Z,7.14
2019-05-01T01:34:58.932Z,7.11
2019-05-01T01:35:58.924Z,7.01
2019-05-01T01:36:58.948Z,7.00
2019-05-01T01:37:58.908Z,7.04
2019-05-01T01:38:58.899Z,7.12
2019-05-01T01:39:58.879Z,7.11
2019-05-01T01:40:58.889Z,6.97
2019-05-01T01:41:58.902Z,7.07
2019-05-01T01:42:58.904Z,7.07
2019-05-01T01:43:58.848Z,7.11
2019-05-01T01:44:58.833Z,7.01
2019-05-01T01:45:58.843Z,7.08
2019-05-01T01:46:58.803Z,6.94
2019-05-01T01:47:58.807Z,6.99
2019-05-01T01:48:58.811Z,6.89
2019-05-01T01:49:58.772Z,6.86
2019-05-01T01:50:58.761Z,6.83
2019-05-01T01:51:58.752Z,6.83
2019-05-01T01:52:58.737Z,6.90
2019-05-01T01:53:58.739Z,6.94
2019-05-01T01:54:58.758Z,6.93
2019-05-01T01:55:58.810Z,7.05
2019-05-01T01:56:58.697Z,6.96
2019-05-01T01:57:58.686Z,6.96
2019-05-01T01:58:58.687Z,6.99
2019-05-01T01:59:58.663Z,6.96
2019-05-01T02:01:08.941Z,6.99
2019-05-01T02:01:59.671Z,6.96
2019-05-01T02:02:58.631Z,6.93
2019-05-01T02:03:58.634Z,6.93
2019-05-01T02:04:58.612Z,6.94
2019-05-01T02:05:58.618Z,6.91
2019-05-01T02:06:58.589Z,6.94
2019-05-01T02:07:58.635Z,6.97
2019-05-01T02:08:58.583Z,6.89
2019-05-01T02:09:58.560Z,7.00
2019-05-01T02:10:58.550Z,6.79
2019-05-01T02:11:58.563Z,6.82
2019-05-01T02:12:58.525Z,6.94
2019-05-01T02:13:58.565Z,6.82
2019-05-01T02:14:58.539Z,6.81
2019-05-01T02:15:58.493Z,6.82
2019-05-01T02:16:58.483Z,6.94
2019-05-01T02:17:58.485Z,6.97
2019-05-01T02:18:58.480Z,6.79
2019-05-01T02:19:58.452Z,6.89
2019-05-01T02:20:58.459Z,6.90
2019-05-01T02:21:58.469Z,6.86
2019-05-01T02:22:58.469Z,6.93
2019-05-01T02:23:58.407Z,6.79
2019-05-01T02:24:58.411Z,6.87
2019-05-01T02:25:58.387Z,6.78
2019-05-01T02:26:58.373Z,6.78
2019-05-01T02:27:58.364Z,6.75
2019-05-01T02:28:58.383Z,6.73
2019-05-01T02:29:58.352Z,6.58
2019-05-01T02:30:58.344Z,6.50
2019-05-01T02:31:58.342Z,6.25
2019-05-01T02:32:58.317Z,6.03
2019-05-01T02:33:58.314Z,5.88
2019-05-01T02:34:58.323Z,5.69
2019-05-01T02:35:58.285Z,5.52
2019-05-01T02:36:58.270Z,5.32
2019-05-01T02:37:58.265Z,5.42
2019-05-01T02:38:58.254Z,5.44
2019-05-01T02:39:58.260Z,5.41
2019-05-01T02:40:58.226Z,5.32
2019-05-01T02:41:58.230Z,5.22
2019-05-01T02:42:58.209Z,5.05
2019-05-01T02:43:58.194Z,4.84
2019-05-01T02:44:58.196Z,4.65
2019-05-01T02:45:58.233Z,4.62
2019-05-01T02:46:58.160Z,4.51
2019-05-01T02:47:58.222Z,4.47
2019-05-01T02:48:58.172Z,4.35
2019-05-01T02:49:58.138Z,4.34
2019-05-01T02:50:58.116Z,4.25
2019-05-01T02:51:58.107Z,4.18
2019-05-01T02:52:58.096Z,4.13
2019-05-01T02:53:58.113Z,4.08
2019-05-01T02:54:58.098Z,4.14
2019-05-01T02:55:58.068Z,4.08
2019-05-01T02:56:58.063Z,3.95
2019-05-01T02:57:58.042Z,3.90
2019-05-01T02:58:58.033Z,3.81
2019-05-01T02:59:58.111Z,3.81
2019-05-01T03:00:58.013Z,3.80
2019-05-01T03:01:58.001Z,4.02
2019-05-01T03:02:58.007Z,4.31
2019-05-01T03:03:57.993Z,4.68
2019-05-01T03:04:57.978Z,4.75
2019-05-01T03:05:57.981Z,4.90
2019-05-01T03:06:57.946Z,5.01
2019-05-01T03:07:57.940Z,5.19
2019-05-01T03:08:57.945Z,5.52
2019-05-01T03:09:57.968Z,5.59
2019-05-01T03:10:57.910Z,5.69
2019-05-01T03:11:57.891Z,5.88
2019-05-01T03:12:57.895Z,5.98
2019-05-01T03:13:57.894Z,6.01
2019-05-01T03:14:57.861Z,6.17
2019-05-01T03:15:57.865Z,6.27
2019-05-01T03:16:57.856Z,6.32
2019-05-01T03:17:57.828Z,6.39
2019-05-01T03:18:57.816Z,6.53
2019-05-01T03:19:57.869Z,6.51
2019-05-01T03:20:57.824Z,6.61
2019-05-01T03:21:57.783Z,6.71
2019-05-01T03:22:57.828Z,6.68
2019-05-01T03:23:57.773Z,6.69
2019-05-01T03:24:57.755Z,6.63
2019-05-01T03:25:57.768Z,6.71
2019-05-01T03:26:57.730Z,6.61
2019-05-01T03:27:57.718Z,6.55
2019-05-01T03:28:57.709Z,6.55
2019-05-01T03:29:57.707Z,6.55
2019-05-01T03:30:57.700Z,6.72
2019-05-01T03:32:15.202Z,6.64
2019-05-01T03:32:58.668Z,6.63
2019-05-01T03:33:57.656Z,6.60
2019-05-01T03:34:57.650Z,6.69
2019-05-01T03:35:57.643Z,6.55
2019-05-01T03:36:57.624Z,6.58
2019-05-01T03:37:57.664Z,6.55
2019-05-01T03:38:57.608Z,6.53
2019-05-01T03:39:57.591Z,6.58
2019-05-01T03:40:57.595Z,6.53
2019-05-01T03:41:57.569Z,6.45
2019-05-01T03:42:57.559Z,6.48
2019-05-01T03:43:57.567Z,6.40
2019-05-01T03:44:57.537Z,6.45
2019-05-01T03:45:57.553Z,6.53
2019-05-01T03:46:57.518Z,6.54
2019-05-01T03:47:57.506Z,6.54
2019-05-01T03:48:57.504Z,6.53
2019-05-01T03:49:57.552Z,6.45
2019-05-01T03:50:57.497Z,6.54
2019-05-01T03:51:57.481Z,6.48
2019-05-01T03:52:57.459Z,6.42
2019-05-01T03:53:57.442Z,6.33
2019-05-01T03:54:57.472Z,6.24
2019-05-01T03:55:57.423Z,6.25
2019-05-01T03:56:57.430Z,6.21
2019-05-01T03:57:57.401Z,6.24
2019-05-01T03:58:57.389Z,6.20
2019-05-01T03:59:57.384Z,6.35
2019-05-01T04:00:57.369Z,6.43
2019-05-01T04:01:57.404Z,6.39
2019-05-01T04:02:57.388Z,6.42
2019-05-01T04:03:57.347Z,6.46
2019-05-01T04:04:57.374Z,6.38
2019-05-01T04:05:57.311Z,6.40
2019-05-01T04:06:57.312Z,6.45
2019-05-01T04:07:57.290Z,6.46
2019-05-01T04:08:57.281Z,6.46
2019-05-01T04:09:57.331Z,6.35
2019-05-01T04:10:57.275Z,6.36
2019-05-01T04:11:57.262Z,6.35
2019-05-01T04:12:57.254Z,6.46
2019-05-01T04:13:57.229Z,6.35
2019-05-01T04:14:57.218Z,6.38
2019-05-01T04:15:57.250Z,6.38
2019-05-01T04:16:57.215Z,6.42
2019-05-01T04:17:57.185Z,6.35
2019-05-01T04:18:57.185Z,6.32
2019-05-01T04:19:57.169Z,6.24
2019-05-01T04:20:57.178Z,6.24
2019-05-01T04:21:57.181Z,6.21
2019-05-01T04:22:57.197Z,6.20
2019-05-01T04:23:57.125Z,6.17
2019-05-01T04:24:57.108Z,6.16
2019-05-01T04:25:57.112Z,6.24
2019-05-01T04:26:57.100Z,6.25
2019-05-01T04:27:58.929Z,6.33
2019-05-01T04:28:57.084Z,6.36
2019-05-01T04:29:57.118Z,6.24
2019-05-01T04:30:57.056Z,6.28
2019-05-01T04:31:57.048Z,6.38
2019-05-01T04:32:57.057Z,6.32
2019-05-01T04:33:57.025Z,6.36
2019-05-01T04:34:57.010Z,6.50
2019-05-01T04:35:56.992Z,6.45
2019-05-01T04:36:57.022Z,6.43
2019-05-01T04:37:56.970Z,6.43
2019-05-01T04:38:56.972Z,6.53
2019-05-01T04:39:57.061Z,6.50
2019-05-01T04:40:56.949Z,6.46
2019-05-01T04:41:56.946Z,6.54
2019-05-01T04:42:56.915Z,6.51
2019-05-01T04:43:56.909Z,6.57
2019-05-01T04:44:56.908Z,6.53
2019-05-01T04:45:56.928Z,6.46
2019-05-01T04:46:56.898Z,6.53
2019-05-01T04:47:56.868Z,6.45
2019-05-01T04:48:56.856Z,6.53
2019-05-01T04:49:56.847Z,6.54
2019-05-01T04:50:56.842Z,6.63
2019-05-01T04:51:56.832Z,6.57
2019-05-01T04:52:56.816Z,6.69
2019-05-01T04:53:56.814Z,6.71
2019-05-01T04:54:56.813Z,6.79
2019-05-01T04:55:56.800Z,6.73
2019-05-01T04:56:56.766Z,6.79
2019-05-01T04:57:56.794Z,6.87
2019-05-01T04:58:56.779Z,6.86
2019-05-01T04:59:56.806Z,6.81
2019-05-01T05:00:56.728Z,6.83
2019-05-01T05:01:57.572Z,6.79
2019-05-01T05:03:04.560Z,6.97
2019-05-01T05:03:57.709Z,6.94
2019-05-01T05:04:56.710Z,6.93
2019-05-01T05:05:56.777Z,6.91
2019-05-01T05:06:56.674Z,6.97
2019-05-01T05:07:56.655Z,6.96
2019-05-01T05:08:56.648Z,6.96
2019-05-01T05:09:56.627Z,7.01
2019-05-01T05:10:56.642Z,7.07
2019-05-01T05:11:56.627Z,7.09
2019-05-01T05:12:56.661Z,7.19
2019-05-01T05:13:56.581Z,7.27
2019-05-01T05:14:56.571Z,7.24
2019-05-01T05:15:56.562Z,7.23
2019-05-01T05:16:56.566Z,7.23
2019-05-01T05:17:56.564Z,7.26
2019-05-01T05:18:56.531Z,7.32
2019-05-01T05:19:56.608Z,7.39
2019-05-01T05:20:56.516Z,7.41
2019-05-01T05:21:56.569Z,7.33
2019-05-01T05:22:56.549Z,7.42
2019-05-01T05:23:56.473Z,7.44
2019-05-01T05:24:56.471Z,7.54
2019-05-01T05:25:56.478Z,7.47
2019-05-01T05:26:56.505Z,7.55
2019-05-01T05:27:56.503Z,7.54
2019-05-01T05:28:56.509Z,7.58
2019-05-01T05:29:56.459Z,7.58
2019-05-01T05:30:56.452Z,7.66
2019-05-01T05:31:56.437Z,7.66
2019-05-01T05:32:56.383Z,7.73
2019-05-01T05:33:56.419Z,7.76
2019-05-01T05:34:56.367Z,7.73
2019-05-01T05:35:56.348Z,7.81
2019-05-01T05:36:56.335Z,7.79
2019-05-01T05:37:56.331Z,7.96
2019-05-01T05:38:56.351Z,8.00
2019-05-01T05:39:56.356Z,8.07
2019-05-01T05:40:56.297Z,8.12
2019-05-01T05:41:56.282Z,8.09
2019-05-01T05:42:56.286Z,8.27
2019-05-01T05:43:56.271Z,8.28
2019-05-01T05:44:56.263Z,8.29
2019-05-01T05:45:56.264Z,8.32
2019-05-01T05:46:56.225Z,8.57
2019-05-01T05:47:56.216Z,8.68
2019-05-01T05:48:56.212Z,8.70
2019-05-01T05:49:56.192Z,8.79
2019-05-01T05:50:56.191Z,8.76
2019-05-01T05:51:56.186Z,8.82
2019-05-01T05:52:56.172Z,8.82
2019-05-01T05:53:56.160Z,9.01
2019-05-01T05:54:56.140Z,8.93
2019-05-01T05:55:56.143Z,8.83
2019-05-01T05:56:56.129Z,8.89
2019-05-01T05:57:56.122Z,9.12
2019-05-01T05:58:56.120Z,9.58
2019-05-01T05:59:56.097Z,10.25
2019-05-01T06:00:56.087Z,10.60
2019-05-01T06:01:56.064Z,10.98
2019-05-01T06:02:56.052Z,11.45
2019-05-01T06:03:56.062Z,11.74
2019-05-01T06:04:56.034Z,11.79
2019-05-01T06:05:56.028Z,11.98
2019-05-01T06:06:56.021Z,12.43
2019-05-01T06:07:56.008Z,12.81
2019-05-01T06:08:55.990Z,13.25
2019-05-01T06:09:55.990Z,13.27
2019-05-01T06:10:58.679Z,12.80
2019-05-01T06:11:55.956Z,12.81
2019-05-01T06:12:55.947Z,13.04
2019-05-01T06:13:57.072Z,12.88
2019-05-01T06:14:55.937Z,12.74
2019-05-01T06:15:55.914Z,12.85
2019-05-01T06:16:55.899Z,12.62
2019-05-01T06:17:59.211Z,12.91
2019-05-01T06:18:56.883Z,13.01
2019-05-01T06:19:55.901Z,13.24
2019-05-01T06:20:57.090Z,13.55
2019-05-01T06:21:56.860Z,12.76
2019-05-01T06:22:55.891Z,12.11
2019-05-01T06:23:57.823Z,12.23
2019-05-01T06:24:56.827Z,12.61
2019-05-01T06:25:59.948Z,12.38
2019-05-01T06:26:56.813Z,12.44
2019-05-01T06:27:55.781Z,12.55
2019-05-01T06:29:00.211Z,12.74
2019-05-01T06:29:55.767Z,12.92
2019-05-01T06:30:55.766Z,13.53
2019-05-01T06:31:58.800Z,14.23
2019-05-01T06:32:55.743Z,14.91
2019-05-01T06:33:55.739Z,15.31
2019-05-01T06:34:58.554Z,15.68
2019-05-01T06:35:56.700Z,15.00
2019-05-01T06:36:55.708Z,15.18
2019-05-01T06:37:55.887Z,15.70
2019-05-01T06:38:55.678Z,16.13
2019-05-01T06:39:55.661Z,15.40
2019-05-01T06:40:58.053Z,15.19
2019-05-01T06:41:55.627Z,15.66
2019-05-01T06:42:55.618Z,16.14
2019-05-01T06:43:57.160Z,15.95
2019-05-01T06:44:56.647Z,15.91
2019-05-01T06:45:55.584Z,16.07
2019-05-01T06:46:58.252Z,16.37
2019-05-01T06:47:56.681Z,16.80
2019-05-01T06:48:55.579Z,16.84
2019-05-01T06:49:55.563Z,17.40
2019-05-01T06:50:55.547Z,17.68
2019-05-01T06:51:55.520Z,17.35
2019-05-01T06:52:55.512Z,17.70
2019-05-01T06:53:55.543Z,17.87
2019-05-01T06:54:55.571Z,18.16
2019-05-01T06:55:55.474Z,18.25
2019-05-01T06:56:55.465Z,18.51
2019-05-01T06:57:55.472Z,18.96
2019-05-01T06:58:56.405Z,19.12
2019-05-01T06:59:55.438Z,18.75
2019-05-01T07:00:55.448Z,18.41
2019-05-01T07:01:58.346Z,18.66
2019-05-01T07:02:55.483Z,18.69
2019-05-01T07:04:03.502Z,18.53
2019-05-01T07:04:56.389Z,17.80
2019-05-01T07:05:56.294Z,17.92
2019-05-01T07:06:55.353Z,18.09
2019-05-01T07:07:55.343Z,18.31
2019-05-01T07:08:55.331Z,18.79
2019-05-01T07:09:55.339Z,18.65
2019-05-01T07:10:55.342Z,18.56
2019-05-01T07:11:55.334Z,18.79
2019-05-01T07:12:55.292Z,18.74
2019-05-01T07:13:55.885Z,18.79
2019-05-01T07:14:55.267Z,18.53
2019-05-01T07:15:58.773Z,17.87
2019-05-01T07:16:56.244Z,17.27
2019-05-01T07:17:55.272Z,16.88
2019-05-01T07:18:58.022Z,17.15
2019-05-01T07:19:56.233Z,17.30
2019-05-01T07:20:55.232Z,17.77
2019-05-01T07:21:55.192Z,18.26
2019-05-01T07:22:55.182Z,17.89
2019-05-01T07:23:55.255Z,17.28
2019-05-01T07:24:58.919Z,17.39
2019-05-01T07:25:56.166Z,17.21
2019-05-01T07:26:55.150Z,17.30
2019-05-01T07:27:58.486Z,17.17
2019-05-01T07:28:55.167Z,17.28
2019-05-01T07:29:55.108Z,17.53
2019-05-01T07:30:56.089Z,17.91
2019-05-01T07:31:55.084Z,18.34
2019-05-01T07:32:55.079Z,18.96
2019-05-01T07:33:55.093Z,19.47
2019-05-01T07:34:56.958Z,19.60
2019-05-01T07:35:56.056Z,20.31
2019-05-01T07:36:55.025Z,20.48
2019-05-01T07:37:57.657Z,20.72
2019-05-01T07:38:55.017Z,20.98
2019-05-01T07:39:55.027Z,20.40
2019-05-01T07:40:58.753Z,20.15
2019-05-01T07:41:55.980Z,20.13
2019-05-01T07:42:54.961Z,20.27
2019-05-01T07:43:59.209Z,20.69
2019-05-01T07:44:54.959Z,21.18
2019-05-01T07:45:54.927Z,21.81
2019-05-01T07:46:56.148Z,22.04
2019-05-01T07:47:54.906Z,21.45
2019-05-01T07:48:54.897Z,21.31
2019-05-01T07:49:55.005Z,21.18
2019-05-01T07:50:54.923Z,21.66
2019-05-01T07:51:54.872Z,21.93
2019-05-01T07:52:54.847Z,22.05
2019-05-01T07:53:59.045Z,21.52
2019-05-01T07:54:55.827Z,20.90
2019-05-01T07:55:54.820Z,21.03
2019-05-01T07:56:58.737Z,20.35
2019-05-01T07:57:55.807Z,20.35
2019-05-01T07:58:54.790Z,20.33
2019-05-01T07:59:58.242Z,20.17
2019-05-01T08:00:55.762Z,19.75
2019-05-01T08:01:55.711Z,20.15
2019-05-01T08:02:54.768Z,20.07
2019-05-01T08:03:54.750Z,19.86
2019-05-01T08:04:54.729Z,19.92
2019-05-01T08:05:54.750Z,20.73
2019-05-01T08:06:57.060Z,21.06
2019-05-01T08:07:54.728Z,21.30
2019-05-01T08:08:54.704Z,21.26
2019-05-01T08:09:54.683Z,21.28
2019-05-01T08:10:54.654Z,20.88
2019-05-01T08:11:54.654Z,20.79
2019-05-01T08:12:55.570Z,20.75
2019-05-01T08:14:07.070Z,21.08
2019-05-01T08:14:55.633Z,21.56
2019-05-01T08:15:54.633Z,22.14
2019-05-01T08:16:54.607Z,22.66
2019-05-01T08:17:54.578Z,22.85
2019-05-01T08:18:54.570Z,22.57
2019-05-01T08:19:54.595Z,22.67
2019-05-01T08:20:54.542Z,22.64
2019-05-01T08:21:57.056Z,22.19
2019-05-01T08:22:55.578Z,22.67
2019-05-01T08:23:54.557Z,22.69
2019-05-01T08:24:58.812Z,22.88
2019-05-01T08:25:55.546Z,23.15
2019-05-01T08:26:54.514Z,22.69
2019-05-01T08:27:56.192Z,22.61
2019-05-01T08:28:54.454Z,22.20
2019-05-01T08:29:54.444Z,22.66
2019-05-01T08:30:54.437Z,23.18
2019-05-01T08:31:54.432Z,23.49
2019-05-01T08:32:54.421Z,23.49
2019-05-01T08:33:54.416Z,23.68
2019-05-01T08:34:55.731Z,23.57
2019-05-01T08:35:55.381Z,23.49
2019-05-01T08:36:54.425Z,23.59
2019-05-01T08:37:58.434Z,23.54
2019-05-01T08:38:55.350Z,23.53
2019-05-01T08:39:54.367Z,23.37
2019-05-01T08:40:55.422Z,23.11
2019-05-01T08:41:54.332Z,23.32
2019-05-01T08:42:54.303Z,22.99
2019-05-01T08:43:55.896Z,23.31
2019-05-01T08:44:54.283Z,23.56
2019-05-01T08:45:54.291Z,23.93
2019-05-01T08:46:54.282Z,24.06
2019-05-01T08:47:56.750Z,23.79
2019-05-01T08:48:55.239Z,23.00
2019-05-01T08:49:54.231Z,23.26
2019-05-01T08:50:54.613Z,23.63
2019-05-01T08:51:54.253Z,23.79
2019-05-01T08:52:54.218Z,23.89
2019-05-01T08:53:57.850Z,24.16
2019-05-01T08:54:55.175Z,23.25
2019-05-01T08:55:54.159Z,23.03
2019-05-01T08:56:58.228Z,22.57
2019-05-01T08:57:55.166Z,21.90
2019-05-01T08:58:54.126Z,22.08
2019-05-01T08:59:55.810Z,22.60
2019-05-01T09:00:55.104Z,22.86
2019-05-01T09:02:08.562Z,23.14
2019-05-01T09:03:07.367Z,23.47
2019-05-01T09:03:55.697Z,23.78
2019-05-01T09:05:02.078Z,23.87
2019-05-01T09:05:57.523Z,23.90
2019-05-01T09:06:54.041Z,23.84
2019-05-01T09:07:55.923Z,23.97
2019-05-01T09:08:54.020Z,24.27
2019-05-01T09:09:54.076Z,23.26
2019-05-01T09:10:54.691Z,23.38
2019-05-01T09:11:54.985Z,23.38
2019-05-01T09:12:54.003Z,23.47
2019-05-01T09:13:54.669Z,23.77
2019-05-01T09:14:53.951Z,23.86
2019-05-01T09:15:53.948Z,22.88
2019-05-01T09:16:53.955Z,22.97
2019-05-01T09:17:53.931Z,23.25
2019-05-01T09:18:53.914Z,23.37
2019-05-01T09:19:53.902Z,23.12
2019-05-01T09:20:53.891Z,23.59
2019-05-01T09:21:53.879Z,23.89
2019-05-01T09:22:53.917Z,24.24
2019-05-01T09:23:53.862Z,24.33
2019-05-01T09:24:53.845Z,24.83
2019-05-01T09:25:53.836Z,24.93
2019-05-01T09:26:53.828Z,24.30
2019-05-01T09:27:53.825Z,24.00
2019-05-01T09:28:53.832Z,24.21
2019-05-01T09:29:53.807Z,23.68
2019-05-01T09:31:01.555Z,23.68
2019-05-01T09:31:54.769Z,23.63
2019-05-01T09:32:55.254Z,23.69
2019-05-01T09:33:53.763Z,23.81
2019-05-01T09:34:53.797Z,23.72
2019-05-01T09:35:53.730Z,23.96
2019-05-01T09:36:53.721Z,24.02
2019-05-01T09:37:53.734Z,23.81
2019-05-01T09:38:53.696Z,23.68
2019-05-01T09:39:53.684Z,23.97
2019-05-01T09:40:53.730Z,24.18
2019-05-01T09:41:53.698Z,24.00
2019-05-01T09:42:54.600Z,24.33
2019-05-01T09:43:54.645Z,24.30
2019-05-01T09:44:53.630Z,24.48
2019-05-01T09:45:53.650Z,24.45
2019-05-01T09:46:53.676Z,24.94
2019-05-01T09:47:53.629Z,24.93
2019-05-01T09:48:53.618Z,24.98
2019-05-01T09:49:55.626Z,25.27
2019-05-01T09:50:53.568Z,25.19
2019-05-01T09:51:53.558Z,24.52
2019-05-01T09:52:55.117Z,24.77
2019-05-01T09:53:54.547Z,24.51
2019-05-01T09:54:53.541Z,24.44
2019-05-01T09:55:53.582Z,23.89
2019-05-01T09:56:53.506Z,23.77
2019-05-01T09:57:53.495Z,23.81
2019-05-01T09:58:53.494Z,23.99
2019-05-01T09:59:53.525Z,24.31
2019-05-01T10:00:53.976Z,24.67
2019-05-01T10:01:53.454Z,24.63
2019-05-01T10:02:54.764Z,24.67
2019-05-01T10:03:54.512Z,24.74
2019-05-01T10:04:53.420Z,24.89
2019-05-01T10:05:53.445Z,24.89
2019-05-01T10:06:54.139Z,24.99
2019-05-01T10:07:53.386Z,25.14
2019-05-01T10:08:53.389Z,24.90
2019-05-01T10:09:53.999Z,24.45
2019-05-01T10:10:53.359Z,24.23
2019-05-01T10:11:53.353Z,24.34
2019-05-01T10:12:53.401Z,24.60
2019-05-01T10:13:53.770Z,24.27
2019-05-01T10:14:53.338Z,24.42
2019-05-01T10:15:53.309Z,24.79
2019-05-01T10:16:53.300Z,24.75
2019-05-01T10:17:53.283Z,25.12
2019-05-01T10:18:53.305Z,25.05
2019-05-01T10:19:53.291Z,24.46
2019-05-01T10:20:53.255Z,24.55
2019-05-01T10:21:53.244Z,24.53
2019-05-01T10:22:53.291Z,24.42
2019-05-01T10:23:53.350Z,24.09
2019-05-01T10:24:53.214Z,24.52
2019-05-01T10:25:53.199Z,24.82
2019-05-01T10:26:55.235Z,25.14
2019-05-01T10:27:54.178Z,25.45
2019-05-01T10:28:53.322Z,25.48
2019-05-01T10:29:57.010Z,25.26
2019-05-01T10:30:54.167Z,24.79
2019-05-01T10:31:53.139Z,24.83
2019-05-01T10:32:57.870Z,25.11
2019-05-01T10:33:54.127Z,25.04
2019-05-01T10:34:53.111Z,25.08
2019-05-01T10:35:53.105Z,25.01
2019-05-01T10:36:54.536Z,25.11
2019-05-01T10:37:53.076Z,25.27
2019-05-01T10:38:53.076Z,25.41
2019-05-01T10:39:54.119Z,25.07
2019-05-01T10:40:53.065Z,24.19
2019-05-01T10:41:53.039Z,22.97
2019-05-01T10:42:53.025Z,23.07
2019-05-01T10:43:53.032Z,23.45
2019-05-01T10:44:53.015Z,23.50
2019-05-01T10:45:52.993Z,23.25
2019-05-01T10:46:53.036Z,23.47
2019-05-01T10:47:52.980Z,23.79
2019-05-01T10:48:52.985Z,24.12
2019-05-01T10:49:52.954Z,23.64
2019-05-01T10:50:52.944Z,22.85
2019-05-01T10:51:52.934Z,22.69
2019-05-01T10:52:52.967Z,23.14
2019-05-01T10:53:52.930Z,23.67
2019-05-01T10:54:52.927Z,24.04
2019-05-01T10:55:52.900Z,24.09
2019-05-01T10:56:52.886Z,24.04
2019-05-01T10:57:52.874Z,23.92
2019-05-01T10:58:52.926Z,24.09
2019-05-01T10:59:52.869Z,23.52
2019-05-01T11:00:52.846Z,23.26
2019-05-01T11:01:52.831Z,23.89
2019-05-01T11:02:52.826Z,23.87
2019-05-01T11:03:52.811Z,23.96
2019-05-01T11:04:52.836Z,23.87
2019-05-01T11:05:56.225Z,23.90
2019-05-01T11:06:52.780Z,24.08
2019-05-01T11:07:52.771Z,24.30
2019-05-01T11:08:52.767Z,24.11
2019-05-01T11:09:52.758Z,24.00
2019-05-01T11:10:52.796Z,23.14
2019-05-01T11:11:52.729Z,22.63
2019-05-01T11:12:52.719Z,22.96
2019-05-01T11:13:52.737Z,23.41
2019-05-01T11:14:52.718Z,23.89
2019-05-01T11:15:52.689Z,24.26
2019-05-01T11:16:52.780Z,24.45
2019-05-01T11:17:52.721Z,24.44
2019-05-01T11:18:52.761Z,24.27
2019-05-01T11:19:52.662Z,23.39
2019-05-01T11:20:52.641Z,22.91
2019-05-01T11:21:52.630Z,22.66
2019-05-01T11:22:52.622Z,22.64
2019-05-01T11:23:52.615Z,23.18
2019-05-01T11:24:52.642Z,23.22
2019-05-01T11:25:52.630Z,23.25
2019-05-01T11:26:52.589Z,23.52
2019-05-01T11:27:52.572Z,23.69
2019-05-01T11:28:52.561Z,23.68
2019-05-01T11:29:52.594Z,23.79
2019-05-01T11:30:52.606Z,23.96
2019-05-01T11:31:52.536Z,23.81
2019-05-01T11:32:52.525Z,23.86
2019-05-01T11:33:52.526Z,24.16
2019-05-01T11:34:52.543Z,24.34
2019-05-01T11:35:52.527Z,24.74
2019-05-01T11:36:52.480Z,24.49
2019-05-01T11:37:52.472Z,24.34
2019-05-01T11:38:52.461Z,24.33
2019-05-01T11:39:52.463Z,24.33
2019-05-01T11:40:52.451Z,24.14
2019-05-01T11:41:52.447Z,24.31
2019-05-01T11:42:52.421Z,24.44
2019-05-01T11:43:52.414Z,24.34
2019-05-01T11:44:52.454Z,24.04
2019-05-01T11:45:52.403Z,23.96
2019-05-01T11:46:52.393Z,23.82
2019-05-01T11:47:52.397Z,23.86
2019-05-01T11:48:52.362Z,23.53
2019-05-01T11:49:52.352Z,22.67
2019-05-01T11:50:52.359Z,22.99
2019-05-01T11:51:52.333Z,23.59
2019-05-01T11:52:52.321Z,23.96
2019-05-01T11:53:52.344Z,24.45
2019-05-01T11:54:52.308Z,24.61
2019-05-01T11:55:52.301Z,24.89
2019-05-01T11:56:52.287Z,24.89
2019-05-01T11:57:52.271Z,24.97
2019-05-01T11:58:52.260Z,24.64
2019-05-01T11:59:52.328Z,25.20
2019-05-01T12:00:52.251Z,25.38
2019-05-01T12:01:52.234Z,25.59
2019-05-01T12:02:52.222Z,26.03
2019-05-01T12:03:52.211Z,26.06
2019-05-01T12:04:52.202Z,26.36
2019-05-01T12:05:52.234Z,26.65
2019-05-01T12:06:52.184Z,26.53
2019-05-01T12:07:52.175Z,26.53
2019-05-01T12:08:52.167Z,26.03
2019-05-01T12:09:52.157Z,25.67
2019-05-01T12:10:52.157Z,25.81
2019-05-01T12:11:52.185Z,25.90
2019-05-01T12:12:52.127Z,25.69
2019-05-01T12:13:52.133Z,25.61
2019-05-01T12:14:52.110Z,25.46
2019-05-01T12:15:52.124Z,25.17
2019-05-01T12:16:52.104Z,25.46
2019-05-01T12:17:52.108Z,25.91
2019-05-01T12:18:52.072Z,26.01
2019-05-01T12:19:52.085Z,26.01
2019-05-01T12:20:52.055Z,25.67
2019-05-01T12:21:52.059Z,25.42
2019-05-01T12:22:52.038Z,24.79
2019-05-01T12:23:52.051Z,24.64
2019-05-01T12:24:52.018Z,24.67
2019-05-01T12:25:52.010Z,24.66
2019-05-01T12:26:52.010Z,25.20
2019-05-01T12:27:51.992Z,24.94
2019-05-01T12:28:52.002Z,25.31
2019-05-01T12:29:52.040Z,25.01
2019-05-01T12:30:51.963Z,24.33
2019-05-01T12:31:51.973Z,24.44
2019-05-01T12:32:51.944Z,24.86
2019-05-01T12:33:51.935Z,25.09
2019-05-01T12:34:51.924Z,25.30
2019-05-01T12:35:51.927Z,25.31
2019-05-01T12:36:51.956Z,25.27
2019-05-01T12:37:51.895Z,24.84
2019-05-01T12:38:51.881Z,24.34
2019-05-01T12:39:51.883Z,23.63
2019-05-01T12:40:51.862Z,23.93
2019-05-01T12:41:51.873Z,24.27
2019-05-01T12:42:51.872Z,23.87
2019-05-01T12:43:51.840Z,24.26
2019-05-01T12:44:51.822Z,24.92
2019-05-01T12:45:51.814Z,25.34
2019-05-01T12:46:51.829Z,25.39
2019-05-01T12:47:51.794Z,25.42
2019-05-01T12:48:51.784Z,25.14
2019-05-01T12:49:51.821Z,24.70
2019-05-01T12:50:51.766Z,24.27
2019-05-01T12:51:51.777Z,23.99
2019-05-01T12:52:51.756Z,23.35
2019-05-01T12:53:51.738Z,22.79
2019-05-01T12:54:52.161Z,22.59
2019-05-01T12:55:51.721Z,23.04
2019-05-01T12:56:51.719Z,22.94
2019-05-01T12:57:51.693Z,22.35
2019-05-01T12:58:51.682Z,22.19
2019-05-01T12:59:51.672Z,21.91
2019-05-01T13:00:51.706Z,21.27
2019-05-01T13:01:51.660Z,21.26
2019-05-01T13:02:51.640Z,21.26
2019-05-01T13:03:51.630Z,21.27
2019-05-01T13:04:51.618Z,21.28